Météo Laillé La Rouesnais (35890),Prévisions Météo 3 et 7 jours Observations temps réel,historique,bilan climatique
Photo de Laille
.//Meteo-Laille_Data_Jour.txt https://tgftp.nws.noaa.gov/data/observations/metar/stations/LFRN.TXT2022/07/03 04:30 LFRN 030430Z AUTO 28003KT CAVOK 10/10 Q1022 TEMPO 0500 FG BKN012
Rennes
Ciel dégagé
Metar : 2022/07/03 04:30 LFRN 030430Z AUTO 28003KT CAVOK 10/10 Q1022 TEMPO 0500 FG BKN012
Couverture nuageuse :
Pression de 30.18 inHg (1022 hPa)
Humidité : 100%
Température : 50°F (10°C)
Vent de W at 3 mph (6 km/h)
Visibilité : greater than 7 miles (10 km)
Nantes
partiellement nuageux
Metar : 2022/07/03 04:30 LFRS 030430Z AUTO 35003KT 9999 SCT026 12/11 Q1021 NOSIG
Couverture nuageuse : Partly Cloudy 2600 ft
Traduc : Partly cloudy 700 ft
Pression de 30.15 inHg (1021 hPa)
Humidité : 94%
Température : 54°F (12°C)
Point de rosée : 52°F (11°C)
Vent de N at 3 mph (6 km/h)
Visibilité : 6 miles (10 km)
Lannion
Ciel dégagé
Metar : 2022/07/02 21:00 LFRO 022100Z AUTO 27006KT CAVOK 12/11 Q1021
Couverture nuageuse :
Traduc : Partly cloudy 700 ft
Pression de 30.15 inHg (1021 hPa)
Humidité : 94%
Température : 54°F (12°C)
Point de rosée : 52°F (11°C)
Vent de W at 7 mph (11 km/h)
Visibilité : greater than 7 miles (10 km)
Dinard
Ciel dégagé
Metar : 2022/07/03 04:30 LFRD 030430Z AUTO 24004KT CAVOK 10/10 Q1021 TEMPO 0500 FG BKN012
Couverture nuageuse :
Traduc : Partly cloudy 700 ft
Pression de 30.15 inHg (1021 hPa)
Humidité : 100%
Température : 50°F (10°C)
Point de rosée : 50°F (10°C)
Vent de WSW at 5 mph (7 km/h)
Visibilité : greater than 7 miles (10 km)
Brest
nuageux
Metar : 2022/07/03 04:30 LFRB 030430Z AUTO 26003KT 9999 BKN037 11/11 Q1022 TEMPO 0500 FG BKN012
Couverture nuageuse : Mostly Cloudy 3700 ft
Traduc : Partly cloudy 700 ft
Pression de 30.18 inHg (1022 hPa)
Humidité : 100%
Température : 52°F (11°C)
Point de rosée : 52°F (11°C)
Vent de W at 3 mph (6 km/h)
Visibilité : 6 miles (10 km)
Quimper
quelques nuages
Metar : 2022/07/03 04:30 LFRQ 030430Z AUTO VRB03KT 9999 FEW020 11/10 Q1022
Couverture nuageuse : Few Clouds 2000 ft
Traduc : Partly cloudy 700 ft
Pression de 30.18 inHg (1022 hPa)
Humidité : 94%
Température : 52°F (11°C)
Point de rosée : 50°F (10°C)
Vent de varies at 3 mph (6 km/h)
Visibilité : 6 miles (10 km)
St Nazaire
quelques nuages
Metar : 2022/07/03 04:30 LFRZ 030430Z AUTO 33003KT 290V360 9999 FEW028 12/10 Q1022 NOSIG
Couverture nuageuse : Few Clouds 2800 ft
Traduc : Partly cloudy 700 ft
Pression de 30.18 inHg (1022 hPa)
Humidité : 88%
Température : 54°F (12°C)
Point de rosée : 50°F (10°C)
Vent de NNW at 3 mph (6 km/h)
Visibilité : 6 miles (10 km)
St Brieuc
Ciel dégagé
Metar : 2022/07/03 04:30 LFRT 030430Z AUTO 25007KT CAVOK 10/09 Q1021
Couverture nuageuse :
Traduc : Partly cloudy 700 ft
Pression de 30.15 inHg (1021 hPa)
Humidité : 94%
Température : 50°F (10°C)
Point de rosée : 48°F (9°C)
Vent de WSW at 8 mph (13 km/h)
Visibilité : greater than 7 miles (10 km)
Lorient
Ciel dégagé
Metar : 2022/07/03 04:30 LFRH 030430Z AUTO 30003KT CAVOK 10/09 Q1022 TEMPO 3000 BR
Couverture nuageuse :
Traduc : Partly cloudy 700 ft
Pression de 30.18 inHg (1022 hPa)
Humidité : 94%
Température : 50°F (10°C)
Point de rosée : 48°F (9°C)
Vent de WNW at 3 mph (6 km/h)
Visibilité : greater than 7 miles (10 km)
Vannes-Meucon
Ciel dégagé
Metar : 2022/07/03 04:30 LFRV 030430Z AUTO 33005KT CAVOK 10/09 Q1022
Couverture nuageuse :
Traduc : Partly cloudy 700 ft
Pression de 30.18 inHg (1022 hPa)
Humidité : 94%
Température : 50°F (10°C)
Point de rosée : 48°F (9°C)
Vent de NNW at 6 mph (9 km/h)
Visibilité : greater than 7 miles (10 km)
St Nazaire
quelques nuages
Metar : 2022/07/03 04:30 LFRZ 030430Z AUTO 33003KT 290V360 9999 FEW028 12/10 Q1022 NOSIG
Couverture nuageuse : Few Clouds 2800 ft
Traduc : Partly cloudy 700 ft
Pression de 30.18 inHg (1022 hPa)
Humidité : 88%
Température : 54°F (12°C)
Point de rosée : 50°F (10°C)
Vent de NNW at 3 mph (6 km/h)
Visibilité : 6 miles (10 km)
?>

 


   Weather Underground PWS IBRETAGN39      Weather Underground PWS IBRETAGN39Retour Météo-Laillé adhérent de Météo-Bretagne et d'Infoclimat. Données mises à jour en temps réel via Météolink Climatologie réalisée sous Wswin et GraphWeather.

Affichage prévisions météo de WeatherUnderground via script PHP de Saratoga.

Copyright 2012-2021


compteur